createdAt,value
2018-12-25T00:02:02.912Z,4.17
2018-12-25T00:04:43.001Z,6.57
2018-12-25T00:07:22.762Z,4.70
2018-12-25T00:10:02.864Z,5.63
2018-12-25T00:12:42.890Z,6.10
2018-12-25T00:15:23.254Z,4.03
2018-12-25T00:18:03.405Z,6.00
2018-12-25T00:20:43.598Z,5.00
2018-12-25T00:23:23.478Z,6.53
2018-12-25T00:26:03.456Z,6.50
2018-12-25T00:28:43.512Z,4.77
2018-12-25T00:31:23.351Z,4.87
2018-12-25T00:34:03.406Z,5.40
2018-12-25T00:36:43.625Z,4.77
2018-12-25T00:39:23.912Z,7.73
2018-12-25T00:42:03.903Z,7.13
2018-12-25T00:44:43.974Z,5.87
2018-12-25T00:47:23.847Z,4.97
2018-12-25T00:50:03.706Z,4.37
2018-12-25T00:52:43.548Z,7.03
2018-12-25T00:55:23.804Z,5.30
2018-12-25T00:58:03.962Z,6.07
2018-12-25T01:00:43.631Z,5.10
2018-12-25T01:03:24.037Z,5.40
2018-12-25T01:06:03.807Z,6.80
2018-12-25T01:08:43.967Z,6.87
2018-12-25T01:11:23.894Z,7.13
2018-12-25T01:14:03.808Z,4.80
2018-12-25T01:16:43.850Z,5.57
2018-12-25T01:19:24.106Z,4.03
2018-12-25T01:22:03.831Z,4.13
2018-12-25T01:24:44.078Z,4.87
2018-12-25T01:27:24.282Z,6.60
2018-12-25T01:30:04.322Z,5.63
2018-12-25T01:32:44.640Z,5.47
2018-12-25T01:35:24.406Z,4.83
2018-12-25T01:38:04.412Z,3.83
2018-12-25T01:40:44.297Z,6.07
2018-12-25T01:43:24.248Z,4.57
2018-12-25T01:46:04.209Z,6.23
2018-12-25T01:48:44.469Z,3.50
2018-12-25T01:51:24.358Z,4.23
2018-12-25T01:54:04.174Z,4.10
2018-12-25T01:56:44.230Z,6.07
2018-12-25T01:59:24.452Z,4.43
2018-12-25T02:02:04.327Z,4.67
2018-12-25T02:04:44.515Z,5.30
2018-12-25T02:07:24.324Z,5.07
2018-12-25T02:10:04.594Z,4.30
2018-12-25T02:12:44.615Z,3.87
2018-12-25T02:15:24.651Z,4.13
2018-12-25T02:18:04.466Z,3.90
2018-12-25T02:20:44.640Z,4.33
2018-12-25T02:23:24.562Z,4.40
2018-12-25T02:26:04.489Z,5.23
2018-12-25T02:28:44.460Z,4.00
2018-12-25T02:31:24.530Z,4.37
2018-12-25T02:34:04.507Z,4.47
2018-12-25T02:36:44.409Z,3.73
2018-12-25T02:39:24.401Z,7.53
2018-12-25T02:42:04.305Z,6.87
2018-12-25T02:44:44.477Z,5.93
2018-12-25T02:47:24.341Z,3.40
2018-12-25T02:50:04.274Z,4.33
2018-12-25T02:52:44.094Z,6.43
2018-12-25T02:55:24.325Z,5.40
2018-12-25T02:58:04.236Z,5.30
2018-12-25T03:00:46.514Z,7.40
2018-12-25T03:03:26.631Z,4.87
2018-12-25T03:06:06.485Z,6.03
2018-12-25T03:08:46.555Z,8.20
2018-12-25T03:11:26.565Z,4.97
2018-12-25T03:14:06.453Z,6.37
2018-12-25T03:16:46.536Z,4.97
2018-12-25T03:19:26.464Z,5.00
2018-12-25T03:22:06.453Z,4.77
2018-12-25T03:24:46.240Z,4.83
2018-12-25T03:27:26.301Z,3.23
2018-12-25T03:30:06.115Z,3.17
2018-12-25T03:32:46.179Z,4.30
2018-12-25T03:35:26.284Z,3.43
2018-12-25T03:38:06.204Z,4.70
2018-12-25T03:40:46.265Z,3.47
2018-12-25T03:43:26.264Z,3.83
2018-12-25T03:46:06.189Z,3.70
2018-12-25T03:48:46.269Z,4.10
2018-12-25T03:51:26.236Z,5.43
2018-12-25T03:54:06.393Z,3.67
2018-12-25T03:56:46.148Z,5.17
2018-12-25T03:59:26.317Z,5.23
2018-12-25T04:02:06.337Z,4.20
2018-12-25T04:04:46.461Z,7.37
2018-12-25T04:07:26.337Z,6.43
2018-12-25T04:10:06.300Z,6.83
2018-12-25T04:12:46.579Z,7.03
2018-12-25T04:15:26.418Z,3.87
2018-12-25T04:18:06.269Z,4.73
2018-12-25T04:20:46.258Z,4.83
2018-12-25T04:23:26.287Z,3.03
2018-12-25T04:26:06.567Z,3.67
2018-12-25T04:28:46.608Z,5.20
2018-12-25T04:31:26.730Z,6.37
2018-12-25T04:34:06.775Z,3.83
2018-12-25T04:36:46.800Z,5.53
2018-12-25T04:39:26.826Z,3.43
2018-12-25T04:42:06.868Z,6.83
2018-12-25T04:44:46.915Z,4.90
2018-12-25T04:47:27.199Z,4.77
2018-12-25T04:50:07.038Z,4.83
2018-12-25T04:52:47.032Z,4.77
2018-12-25T04:55:27.047Z,4.77
2018-12-25T04:58:07.023Z,4.40
2018-12-25T05:00:46.981Z,5.10
2018-12-25T05:03:27.180Z,6.30
2018-12-25T05:06:07.096Z,5.20
2018-12-25T05:08:47.097Z,3.47
2018-12-25T05:11:26.969Z,4.00
2018-12-25T05:14:07.210Z,4.17
2018-12-25T05:16:47.276Z,4.60
2018-12-25T05:19:27.289Z,5.63
2018-12-25T05:22:07.366Z,4.53
2018-12-25T05:24:47.480Z,4.30
2018-12-25T05:27:27.512Z,6.30
2018-12-25T05:30:07.397Z,5.80
2018-12-25T05:32:47.429Z,4.13
2018-12-25T05:35:27.477Z,5.37
2018-12-25T05:38:07.257Z,4.47
2018-12-25T05:40:47.528Z,5.20
2018-12-25T05:43:27.552Z,4.87
2018-12-25T05:46:07.691Z,6.67
2018-12-25T05:48:47.740Z,4.13
2018-12-25T05:51:27.631Z,6.37
2018-12-25T05:54:07.445Z,4.07
2018-12-25T05:56:47.505Z,5.10
2018-12-25T05:59:27.587Z,4.23
2018-12-25T06:02:07.586Z,4.17
2018-12-25T06:04:47.688Z,3.83
2018-12-25T06:07:27.985Z,3.60
2018-12-25T06:10:07.832Z,3.87
2018-12-25T06:12:47.762Z,4.27
2018-12-25T06:15:28.016Z,4.93
2018-12-25T06:18:07.952Z,7.83
2018-12-25T06:20:55.126Z,4.07
2018-12-25T06:23:29.939Z,5.20
2018-12-25T06:26:10.142Z,3.63
2018-12-25T06:28:50.260Z,4.90
2018-12-25T06:31:30.352Z,5.00
2018-12-25T06:34:10.279Z,3.73
2018-12-25T06:36:50.365Z,6.47
2018-12-25T06:39:30.356Z,4.60
2018-12-25T06:42:10.427Z,4.10
2018-12-25T06:44:50.508Z,3.23
2018-12-25T06:47:30.549Z,6.27
2018-12-25T06:50:10.340Z,4.17
2018-12-25T06:52:50.340Z,4.63
2018-12-25T06:55:30.285Z,3.83
2018-12-25T06:58:10.210Z,5.30
2018-12-25T07:00:50.111Z,3.90
2018-12-25T07:03:29.994Z,4.23
2018-12-25T07:06:10.035Z,3.97
2018-12-25T07:08:49.895Z,6.63
2018-12-25T07:11:29.840Z,4.77
2018-12-25T07:14:09.951Z,7.13
2018-12-25T07:16:49.919Z,6.13
2018-12-25T07:19:30.072Z,5.43
2018-12-25T07:22:09.990Z,4.77
2018-12-25T07:24:49.892Z,5.00
2018-12-25T07:27:29.834Z,8.40
2018-12-25T07:30:09.744Z,5.37
2018-12-25T07:32:50.073Z,7.03
2018-12-25T07:35:29.955Z,10.97
2018-12-25T07:38:09.897Z,3.97
2018-12-25T07:40:49.745Z,3.87
2018-12-25T07:43:29.785Z,7.40
2018-12-25T07:46:09.848Z,5.60
2018-12-25T07:48:49.829Z,6.37
2018-12-25T07:51:29.908Z,5.93
2018-12-25T07:54:09.837Z,5.73
2018-12-25T07:56:49.960Z,7.03
2018-12-25T07:59:29.923Z,10.43
2018-12-25T08:02:10.246Z,8.13
2018-12-25T08:04:50.287Z,5.47
2018-12-25T08:07:30.286Z,7.70
2018-12-25T08:10:10.437Z,4.83
2018-12-25T08:12:50.707Z,7.00
2018-12-25T08:15:30.696Z,7.40
2018-12-25T08:18:11.055Z,6.40
2018-12-25T08:20:51.254Z,5.33
2018-12-25T08:23:31.156Z,5.43
2018-12-25T08:26:11.288Z,7.90
2018-12-25T08:28:51.503Z,5.53
2018-12-25T08:31:31.444Z,4.40
2018-12-25T08:34:11.571Z,6.23
2018-12-25T08:36:51.500Z,6.83
2018-12-25T08:39:31.632Z,6.43
2018-12-25T08:42:11.429Z,5.60
2018-12-25T08:44:51.485Z,5.70
2018-12-25T08:47:31.517Z,4.77
2018-12-25T08:50:11.617Z,5.80
2018-12-25T08:52:51.783Z,6.50
2018-12-25T08:55:31.795Z,8.40
2018-12-25T08:58:11.753Z,5.33
2018-12-25T09:00:51.781Z,5.43
2018-12-25T09:03:31.853Z,5.70
2018-12-25T09:06:12.098Z,6.60
2018-12-25T09:08:52.379Z,6.83
2018-12-25T09:11:32.175Z,7.03
2018-12-25T09:14:12.048Z,8.23
2018-12-25T09:16:52.161Z,6.60
2018-12-25T09:19:32.251Z,4.60
2018-12-25T09:22:12.241Z,5.40
2018-12-25T09:24:52.183Z,4.10
2018-12-25T09:27:32.411Z,6.03
2018-12-25T09:30:12.500Z,5.63
2018-12-25T09:32:52.471Z,6.00
2018-12-25T09:35:32.538Z,4.03
2018-12-25T09:38:12.380Z,4.30
2018-12-25T09:40:52.392Z,4.73
2018-12-25T09:43:32.492Z,3.80
2018-12-25T09:46:12.455Z,6.13
2018-12-25T09:48:52.549Z,7.70
2018-12-25T09:51:32.506Z,6.20
2018-12-25T09:54:12.839Z,5.67
2018-12-25T09:56:52.716Z,4.60
2018-12-25T09:59:32.656Z,4.77
2018-12-25T10:02:12.655Z,6.83
2018-12-25T10:04:52.672Z,4.30
2018-12-25T10:07:32.786Z,5.27
2018-12-25T10:10:12.889Z,4.73
2018-12-25T10:12:53.197Z,4.47
2018-12-25T10:15:33.297Z,5.70
2018-12-25T10:18:13.412Z,3.73
2018-12-25T10:20:53.285Z,7.23
2018-12-25T10:23:33.301Z,5.93
2018-12-25T10:26:13.344Z,3.00
2018-12-25T10:28:53.337Z,2.63
2018-12-25T10:31:33.468Z,4.23
2018-12-25T10:34:13.411Z,5.77
2018-12-25T10:36:53.461Z,4.50
2018-12-25T10:39:33.375Z,4.20
2018-12-25T10:42:13.424Z,5.10
2018-12-25T10:44:53.580Z,3.33
2018-12-25T10:47:33.793Z,5.60
2018-12-25T10:50:13.818Z,2.93
2018-12-25T10:52:53.757Z,5.90
2018-12-25T10:55:33.649Z,7.63
2018-12-25T10:58:13.618Z,3.80
2018-12-25T11:00:53.809Z,3.60
2018-12-25T11:03:33.865Z,4.33
2018-12-25T11:06:13.781Z,3.57
2018-12-25T11:08:53.947Z,2.63
2018-12-25T11:11:33.976Z,4.97
2018-12-25T11:14:14.109Z,4.00
2018-12-25T11:16:54.344Z,3.43
2018-12-25T11:19:34.195Z,3.93
2018-12-25T11:22:19.789Z,3.80
2018-12-25T11:24:56.152Z,2.83
2018-12-25T11:27:36.046Z,5.37
2018-12-25T11:30:15.817Z,3.93
2018-12-25T11:32:55.797Z,2.77
2018-12-25T11:35:35.796Z,3.33
2018-12-25T11:38:15.843Z,4.53
2018-12-25T11:40:55.833Z,7.33
2018-12-25T11:43:35.903Z,11.63
2018-12-25T11:46:16.035Z,7.73
2018-12-25T11:48:55.981Z,9.33
2018-12-25T11:51:36.205Z,3.50
2018-12-25T11:54:16.581Z,4.00
2018-12-25T11:56:56.459Z,2.83
2018-12-25T11:59:36.709Z,4.43
2018-12-25T12:02:17.241Z,3.50
2018-12-25T12:04:57.757Z,1.93
2018-12-25T12:07:37.792Z,3.00
2018-12-25T12:10:17.853Z,2.60
2018-12-25T12:12:57.940Z,5.80
2018-12-25T12:15:37.773Z,3.50
2018-12-25T12:18:17.775Z,4.40
2018-12-25T12:20:58.176Z,4.13
2018-12-25T12:23:38.062Z,1.50
2018-12-25T12:26:18.309Z,3.03
2018-12-25T12:28:58.236Z,1.77
2018-12-25T12:31:38.379Z,2.80
2018-12-25T12:34:18.574Z,1.97
2018-12-25T12:36:58.503Z,6.67
2018-12-25T12:39:38.397Z,2.40
2018-12-25T12:42:18.750Z,6.80
2018-12-25T12:44:58.655Z,4.20
2018-12-25T12:47:38.580Z,5.33
2018-12-25T12:50:18.471Z,3.37
2018-12-25T12:52:58.853Z,3.67
2018-12-25T12:55:38.669Z,5.20
2018-12-25T12:58:18.520Z,8.37
2018-12-25T13:00:58.433Z,2.60
2018-12-25T13:03:38.398Z,5.70
2018-12-25T13:06:18.352Z,3.37
2018-12-25T13:08:58.421Z,4.37
2018-12-25T13:11:38.508Z,4.80
2018-12-25T13:14:18.705Z,3.60
2018-12-25T13:16:58.712Z,4.93
2018-12-25T13:19:38.869Z,5.00
2018-12-25T13:22:18.699Z,2.57
2018-12-25T13:24:58.634Z,4.33
2018-12-25T13:27:38.589Z,3.50
2018-12-25T13:30:18.651Z,2.63
2018-12-25T13:32:58.902Z,2.70
2018-12-25T13:35:38.840Z,3.93
2018-12-25T13:38:19.101Z,2.87
2018-12-25T13:41:00.195Z,2.83
2018-12-25T13:43:40.484Z,2.80
2018-12-25T13:46:20.465Z,7.37
2018-12-25T13:49:00.499Z,4.60
2018-12-25T13:51:41.334Z,10.17
2018-12-25T13:54:21.425Z,3.33
2018-12-25T13:57:01.452Z,4.07
2018-12-25T13:59:41.540Z,10.87
2018-12-25T14:02:21.380Z,4.13
2018-12-25T14:05:01.577Z,3.63
2018-12-25T14:07:41.629Z,2.40
2018-12-25T14:10:21.409Z,3.47
2018-12-25T14:13:01.384Z,2.77
2018-12-25T14:15:41.589Z,3.37
2018-12-25T14:18:21.585Z,9.13
2018-12-25T14:21:01.527Z,10.30
2018-12-25T14:23:41.566Z,3.53
2018-12-25T14:26:21.672Z,4.00
2018-12-25T14:29:01.577Z,6.70
2018-12-25T14:31:44.013Z,2.70
2018-12-25T14:34:24.605Z,4.30
2018-12-25T14:37:04.683Z,3.63
2018-12-25T14:39:44.611Z,2.20
2018-12-25T14:42:24.521Z,2.90
2018-12-25T14:45:04.721Z,3.63
2018-12-25T14:47:44.772Z,3.27
2018-12-25T14:50:24.948Z,5.90
2018-12-25T14:53:04.876Z,4.50
2018-12-25T14:55:44.956Z,4.77
2018-12-25T14:58:24.916Z,3.33
2018-12-25T15:01:04.921Z,4.30
2018-12-25T15:03:45.067Z,3.00
2018-12-25T15:06:25.124Z,3.20
2018-12-25T15:09:05.101Z,5.03
2018-12-25T15:11:45.006Z,7.77
2018-12-25T15:14:25.088Z,6.63
2018-12-25T15:17:05.211Z,3.97
2018-12-25T15:19:45.294Z,5.83
2018-12-25T15:22:25.220Z,5.67
2018-12-25T15:25:05.209Z,7.93
2018-12-25T15:27:45.292Z,6.90
2018-12-25T15:30:25.220Z,5.23
2018-12-25T15:33:05.223Z,5.37
2018-12-25T15:35:45.160Z,6.20
2018-12-25T15:38:25.215Z,7.13
2018-12-25T15:41:05.058Z,6.33
2018-12-25T15:43:45.185Z,8.80
2018-12-25T15:46:25.272Z,5.30
2018-12-25T15:49:05.326Z,6.00
2018-12-25T15:51:45.219Z,5.17
2018-12-25T15:54:25.224Z,6.17
2018-12-25T15:57:05.095Z,4.10
2018-12-25T15:59:45.315Z,4.27
2018-12-25T16:02:24.963Z,8.23
2018-12-25T16:05:04.908Z,9.63
2018-12-25T16:07:44.685Z,4.90
2018-12-25T16:10:24.878Z,6.80
2018-12-25T16:13:04.933Z,8.87
2018-12-25T16:15:45.192Z,8.93
2018-12-25T16:18:25.115Z,6.70
2018-12-25T16:21:05.278Z,8.30
2018-12-25T16:23:45.861Z,6.43
2018-12-25T16:26:26.396Z,11.23
2018-12-25T16:29:06.363Z,10.53
2018-12-25T16:31:46.350Z,10.57
2018-12-25T16:34:26.256Z,9.13
2018-12-25T16:37:06.367Z,8.70
2018-12-25T16:39:46.443Z,10.67
2018-12-25T16:42:26.468Z,6.70
2018-12-25T16:45:06.246Z,8.47
2018-12-25T16:47:46.249Z,6.23
2018-12-25T16:50:26.225Z,7.53
2018-12-25T16:53:06.189Z,5.47
2018-12-25T16:55:46.261Z,7.17
2018-12-25T16:58:26.163Z,6.77
2018-12-25T17:01:06.238Z,9.20
2018-12-25T17:03:46.253Z,17.03
2018-12-25T17:06:26.283Z,10.60
2018-12-25T17:09:06.494Z,7.13
2018-12-25T17:11:46.349Z,9.50
2018-12-25T17:14:26.448Z,6.33
2018-12-25T17:17:06.327Z,9.97
2018-12-25T17:19:46.384Z,10.33
2018-12-25T17:22:26.447Z,7.57
2018-12-25T17:25:06.599Z,9.17
2018-12-25T17:27:46.568Z,9.67
2018-12-25T17:30:26.474Z,8.17
2018-12-25T17:33:06.519Z,9.07
2018-12-25T17:35:46.730Z,9.73
2018-12-25T17:38:26.799Z,8.43
2018-12-25T17:41:06.717Z,11.63
2018-12-25T17:43:46.827Z,10.53
2018-12-25T17:46:26.988Z,8.27
2018-12-25T17:49:06.938Z,9.03
2018-12-25T17:51:47.071Z,12.33
2018-12-25T17:54:27.157Z,7.37
2018-12-25T17:57:07.153Z,13.27
2018-12-25T17:59:47.008Z,11.40
2018-12-25T18:02:27.141Z,9.80
2018-12-25T18:05:11.749Z,10.43
2018-12-25T18:07:49.151Z,8.77
2018-12-25T18:10:29.043Z,9.27
2018-12-25T18:13:09.144Z,12.30
2018-12-25T18:15:49.413Z,12.37
2018-12-25T18:18:29.242Z,10.63
2018-12-25T18:21:09.279Z,10.60
2018-12-25T18:23:49.490Z,8.73
2018-12-25T18:26:29.361Z,13.23
2018-12-25T18:29:09.552Z,9.03
2018-12-25T18:31:49.448Z,12.13
2018-12-25T18:34:29.425Z,11.93
2018-12-25T18:37:09.369Z,10.53
2018-12-25T18:39:49.425Z,11.10
2018-12-25T18:42:29.819Z,10.83
2018-12-25T18:45:09.743Z,11.70
2018-12-25T18:47:49.671Z,13.40
2018-12-25T18:50:29.856Z,15.23
2018-12-25T18:53:10.083Z,17.70
2018-12-25T18:55:50.269Z,13.67
2018-12-25T18:58:30.000Z,15.20
2018-12-25T19:01:09.800Z,14.63
2018-12-25T19:03:49.760Z,16.53
2018-12-25T19:06:29.884Z,13.00
2018-12-25T19:09:10.032Z,16.23
2018-12-25T19:11:50.040Z,15.93
2018-12-25T19:14:30.139Z,20.53
2018-12-25T19:17:10.074Z,14.77
2018-12-25T19:19:50.262Z,19.67
2018-12-25T19:22:30.758Z,18.20
2018-12-25T19:25:11.367Z,18.73
2018-12-25T19:27:51.504Z,18.50
2018-12-25T19:30:31.427Z,21.37
2018-12-25T19:33:11.461Z,25.33
2018-12-25T19:35:51.196Z,22.67
2018-12-25T19:38:31.181Z,26.63
2018-12-25T19:41:11.312Z,26.17
2018-12-25T19:43:51.265Z,22.10
2018-12-25T19:46:31.052Z,25.60
2018-12-25T19:49:11.161Z,24.10
2018-12-25T19:51:51.313Z,25.57
2018-12-25T19:54:31.315Z,29.13
2018-12-25T19:57:11.525Z,28.57
2018-12-25T19:59:51.507Z,24.53
2018-12-25T20:02:31.536Z,21.90
2018-12-25T20:05:11.695Z,27.00
2018-12-25T20:07:51.593Z,25.47
2018-12-25T20:10:32.795Z,22.63
2018-12-25T20:13:12.618Z,27.13
2018-12-25T20:15:52.555Z,24.20
2018-12-25T20:18:32.682Z,23.93
2018-12-25T20:21:12.592Z,27.47
2018-12-25T20:23:53.767Z,26.03
2018-12-25T20:26:33.885Z,28.03
2018-12-25T20:29:14.201Z,28.43
2018-12-25T20:31:54.134Z,27.83
2018-12-25T20:34:34.131Z,34.80
2018-12-25T20:37:14.070Z,28.00
2018-12-25T20:39:54.104Z,26.17
2018-12-25T20:42:34.100Z,24.93
2018-12-25T20:45:14.272Z,27.70
2018-12-25T20:47:54.355Z,29.50
2018-12-25T20:50:34.529Z,26.67
2018-12-25T20:53:14.449Z,25.27
2018-12-25T20:55:54.624Z,24.80
2018-12-25T20:58:34.653Z,29.17
2018-12-25T21:01:14.758Z,25.23
2018-12-25T21:03:54.681Z,27.77
2018-12-25T21:06:34.842Z,24.20
2018-12-25T21:09:14.929Z,26.57
2018-12-25T21:11:55.019Z,26.97
2018-12-25T21:14:35.157Z,25.10
2018-12-25T21:17:15.089Z,26.00
2018-12-25T21:19:55.305Z,24.20
2018-12-25T21:22:35.232Z,27.80
2018-12-25T21:25:15.444Z,23.03
2018-12-25T21:27:55.469Z,22.67
2018-12-25T21:30:35.321Z,23.83
2018-12-25T21:33:15.508Z,25.07
2018-12-25T21:35:55.337Z,25.40
2018-12-25T21:38:35.270Z,23.63
2018-12-25T21:41:15.305Z,25.47
2018-12-25T21:43:55.608Z,27.77
2018-12-25T21:46:35.496Z,24.30
2018-12-25T21:49:15.592Z,25.17
2018-12-25T21:51:55.381Z,27.03
2018-12-25T21:54:35.375Z,25.83
2018-12-25T21:57:15.182Z,19.37
2018-12-25T21:59:54.976Z,22.20
2018-12-25T22:02:34.977Z,26.47
2018-12-25T22:05:14.905Z,22.53
2018-12-25T22:07:55.000Z,22.13
2018-12-25T22:10:35.304Z,24.27
2018-12-25T22:13:15.224Z,20.10
2018-12-25T22:15:55.290Z,22.80
2018-12-25T22:18:35.380Z,22.77
2018-12-25T22:21:15.340Z,25.30
2018-12-25T22:23:55.193Z,22.97
2018-12-25T22:26:35.109Z,19.07
2018-12-25T22:29:15.219Z,18.43
2018-12-25T22:31:55.343Z,21.87
2018-12-25T22:34:35.269Z,20.40
2018-12-25T22:37:15.458Z,20.60
2018-12-25T22:39:55.469Z,21.07
2018-12-25T22:42:35.857Z,22.50
2018-12-25T22:45:15.668Z,22.60
2018-12-25T22:47:55.788Z,20.00
2018-12-25T22:50:35.984Z,21.13
2018-12-25T22:53:16.162Z,21.87
2018-12-25T22:55:56.543Z,19.13
2018-12-25T22:58:36.597Z,21.27
2018-12-25T23:01:16.775Z,20.67
2018-12-25T23:03:56.729Z,19.20
2018-12-25T23:06:36.869Z,20.83
2018-12-25T23:09:16.805Z,18.13
2018-12-25T23:11:56.952Z,19.00
2018-12-25T23:14:37.126Z,21.80
2018-12-25T23:17:17.104Z,19.60
2018-12-25T23:19:57.043Z,20.57
2018-12-25T23:22:37.145Z,21.03
2018-12-25T23:25:17.156Z,22.37
2018-12-25T23:27:57.289Z,19.70
2018-12-25T23:30:37.369Z,22.43
2018-12-25T23:33:17.271Z,21.70
2018-12-25T23:35:57.401Z,20.33
2018-12-25T23:38:37.445Z,24.70
2018-12-25T23:41:17.503Z,20.80
2018-12-25T23:43:57.624Z,20.60
2018-12-25T23:46:37.992Z,21.87
2018-12-25T23:49:18.196Z,20.50
2018-12-25T23:51:58.082Z,17.60
2018-12-25T23:54:38.126Z,21.07
2018-12-25T23:57:18.117Z,22.07
2018-12-25T23:59:58.234Z,20.10
